sensor_id;sensor_type;location;lat;lon;timestamp;temperature;humidity
18823;DHT22;9540;51.550;7.980;2023-02-05T00:00:45;3.20;99.90
18823;DHT22;9540;51.550;7.980;2023-02-05T00:03:12;3.20;99.90
18823;DHT22;9540;51.550;7.980;2023-02-05T00:05:39;3.20;99.90
18823;DHT22;9540;51.550;7.980;2023-02-05T00:08:06;3.20;99.90
18823;DHT22;9540;51.550;7.980;2023-02-05T00:10:33;3.20;99.90
18823;DHT22;9540;51.550;7.980;2023-02-05T00:13:00;3.20;99.90
18823;DHT22;9540;51.550;7.980;2023-02-05T00:15:28;3.20;99.90
18823;DHT22;9540;51.550;7.980;2023-02-05T00:17:56;3.20;99.90
18823;DHT22;9540;51.550;7.980;2023-02-05T00:20:23;3.20;99.90
18823;DHT22;9540;51.550;7.980;2023-02-05T00:22:50;3.10;99.90
18823;DHT22;9540;51.550;7.980;2023-02-05T00:25:17;3.10;99.90
18823;DHT22;9540;51.550;7.980;2023-02-05T00:27:44;3.10;99.90
18823;DHT22;9540;51.550;7.980;2023-02-05T00:30:11;3.10;99.90
18823;DHT22;9540;51.550;7.980;2023-02-05T00:32:38;3.10;99.90
18823;DHT22;9540;51.550;7.980;2023-02-05T00:35:07;3.00;99.90
18823;DHT22;9540;51.550;7.980;2023-02-05T00:37:34;3.00;99.90
18823;DHT22;9540;51.550;7.980;2023-02-05T00:40:01;3.10;99.90
18823;DHT22;9540;51.550;7.980;2023-02-05T00:42:28;3.10;99.90
18823;DHT22;9540;51.550;7.980;2023-02-05T00:44:55;3.10;99.90
18823;DHT22;9540;51.550;7.980;2023-02-05T00:47:22;3.20;99.90
18823;DHT22;9540;51.550;7.980;2023-02-05T00:49:49;3.20;99.90
18823;DHT22;9540;51.550;7.980;2023-02-05T00:52:17;3.30;99.90
18823;DHT22;9540;51.550;7.980;2023-02-05T00:54:44;3.40;99.90
18823;DHT22;9540;51.550;7.980;2023-02-05T00:57:11;3.40;99.90
18823;DHT22;9540;51.550;7.980;2023-02-05T00:59:38;3.50;99.90
18823;DHT22;9540;51.550;7.980;2023-02-05T01:02:05;3.50;99.90
18823;DHT22;9540;51.550;7.980;2023-02-05T01:04:32;3.50;99.90
18823;DHT22;9540;51.550;7.980;2023-02-05T01:06:59;3.50;99.90
18823;DHT22;9540;51.550;7.980;2023-02-05T01:09:27;3.50;99.90
18823;DHT22;9540;51.550;7.980;2023-02-05T01:11:54;3.50;99.90
18823;DHT22;9540;51.550;7.980;2023-02-05T01:14:21;3.50;99.90
18823;DHT22;9540;51.550;7.980;2023-02-05T01:16:48;3.50;99.90
18823;DHT22;9540;51.550;7.980;2023-02-05T01:19:15;3.40;99.90
18823;DHT22;9540;51.550;7.980;2023-02-05T01:21:42;3.40;99.90
18823;DHT22;9540;51.550;7.980;2023-02-05T01:24:09;3.40;99.90
18823;DHT22;9540;51.550;7.980;2023-02-05T01:26:38;3.50;99.90
18823;DHT22;9540;51.550;7.980;2023-02-05T01:29:05;3.50;99.90
18823;DHT22;9540;51.550;7.980;2023-02-05T01:31:32;3.50;99.90
18823;DHT22;9540;51.550;7.980;2023-02-05T01:33:59;3.40;99.90
18823;DHT22;9540;51.550;7.980;2023-02-05T01:36:26;3.40;99.90
18823;DHT22;9540;51.550;7.980;2023-02-05T01:38:53;3.40;99.90
18823;DHT22;9540;51.550;7.980;2023-02-05T01:41:20;3.50;99.90
18823;DHT22;9540;51.550;7.980;2023-02-05T01:44:09;3.50;99.90
18823;DHT22;9540;51.550;7.980;2023-02-05T01:46:38;3.50;99.90
18823;DHT22;9540;51.550;7.980;2023-02-05T01:49:06;3.50;99.90
18823;DHT22;9540;51.550;7.980;2023-02-05T01:51:35;3.50;99.90
18823;DHT22;9540;51.550;7.980;2023-02-05T01:54:03;3.50;99.90
18823;DHT22;9540;51.550;7.980;2023-02-05T01:56:34;3.50;99.90
18823;DHT22;9540;51.550;7.980;2023-02-05T01:59:06;3.60;99.90
18823;DHT22;9540;51.550;7.980;2023-02-05T02:01:36;3.60;99.90
18823;DHT22;9540;51.550;7.980;2023-02-05T02:04:03;3.70;99.90
18823;DHT22;9540;51.550;7.980;2023-02-05T02:06:32;3.70;99.90
18823;DHT22;9540;51.550;7.980;2023-02-05T02:09:01;3.80;99.90
18823;DHT22;9540;51.550;7.980;2023-02-05T02:11:30;3.80;99.90
18823;DHT22;9540;51.550;7.980;2023-02-05T02:14:00;3.80;99.90
18823;DHT22;9540;51.550;7.980;2023-02-05T02:16:28;3.80;99.90
18823;DHT22;9540;51.550;7.980;2023-02-05T02:18:57;3.80;99.90
18823;DHT22;9540;51.550;7.980;2023-02-05T02:24:47;3.90;99.90
18823;DHT22;9540;51.550;7.980;2023-02-05T02:27:37;3.90;99.90
18823;DHT22;9540;51.550;7.980;2023-02-05T02:30:09;3.90;99.90
18823;DHT22;9540;51.550;7.980;2023-02-05T02:32:41;4.00;99.90
18823;DHT22;9540;51.550;7.980;2023-02-05T02:35:13;4.00;99.90
18823;DHT22;9540;51.550;7.980;2023-02-05T02:37:46;4.00;99.90
18823;DHT22;9540;51.550;7.980;2023-02-05T02:40:19;4.10;99.90
18823;DHT22;9540;51.550;7.980;2023-02-05T02:42:52;4.10;99.90
18823;DHT22;9540;51.550;7.980;2023-02-05T02:45:26;4.20;99.90
18823;DHT22;9540;51.550;7.980;2023-02-05T02:47:57;4.20;99.90
18823;DHT22;9540;51.550;7.980;2023-02-05T02:50:27;4.20;99.90
18823;DHT22;9540;51.550;7.980;2023-02-05T02:53:02;4.20;99.90
18823;DHT22;9540;51.550;7.980;2023-02-05T02:55:33;4.20;99.90
18823;DHT22;9540;51.550;7.980;2023-02-05T02:58:05;4.20;99.90
18823;DHT22;9540;51.550;7.980;2023-02-05T03:00:33;4.20;99.90
18823;DHT22;9540;51.550;7.980;2023-02-05T03:03:05;4.20;99.90
18823;DHT22;9540;51.550;7.980;2023-02-05T03:05:33;4.20;99.90
18823;DHT22;9540;51.550;7.980;2023-02-05T03:08:04;4.20;99.90
18823;DHT22;9540;51.550;7.980;2023-02-05T03:10:35;4.20;99.90
18823;DHT22;9540;51.550;7.980;2023-02-05T03:13:08;4.30;99.90
18823;DHT22;9540;51.550;7.980;2023-02-05T03:15:36;4.20;99.90
18823;DHT22;9540;51.550;7.980;2023-02-05T03:18:03;4.20;99.90
18823;DHT22;9540;51.550;7.980;2023-02-05T03:20:33;4.20;99.90
18823;DHT22;9540;51.550;7.980;2023-02-05T03:23:01;4.20;99.90
18823;DHT22;9540;51.550;7.980;2023-02-05T03:25:29;4.20;99.90
18823;DHT22;9540;51.550;7.980;2023-02-05T03:27:57;4.20;99.90
18823;DHT22;9540;51.550;7.980;2023-02-05T03:30:29;4.20;99.90
18823;DHT22;9540;51.550;7.980;2023-02-05T03:33:06;4.20;99.90
18823;DHT22;9540;51.550;7.980;2023-02-05T03:35:39;4.20;99.90
18823;DHT22;9540;51.550;7.980;2023-02-05T03:38:27;4.10;99.90
18823;DHT22;9540;51.550;7.980;2023-02-05T03:40:59;4.10;99.90
18823;DHT22;9540;51.550;7.980;2023-02-05T03:43:40;4.10;99.90
18823;DHT22;9540;51.550;7.980;2023-02-05T03:46:16;4.00;99.90
18823;DHT22;9540;51.550;7.980;2023-02-05T03:48:58;4.00;99.90
18823;DHT22;9540;51.550;7.980;2023-02-05T03:51:34;4.00;99.90
18823;DHT22;9540;51.550;7.980;2023-02-05T03:54:08;4.00;99.90
18823;DHT22;9540;51.550;7.980;2023-02-05T03:56:43;4.00;99.90
18823;DHT22;9540;51.550;7.980;2023-02-05T03:59:12;4.00;99.90
18823;DHT22;9540;51.550;7.980;2023-02-05T04:01:42;4.00;99.90
18823;DHT22;9540;51.550;7.980;2023-02-05T04:04:10;4.00;99.90
18823;DHT22;9540;51.550;7.980;2023-02-05T04:06:40;4.00;99.90
18823;DHT22;9540;51.550;7.980;2023-02-05T04:09:08;4.00;99.90
18823;DHT22;9540;51.550;7.980;2023-02-05T04:11:35;3.90;99.90
18823;DHT22;9540;51.550;7.980;2023-02-05T04:14:03;3.90;99.90
18823;DHT22;9540;51.550;7.980;2023-02-05T04:16:30;3.90;99.90
18823;DHT22;9540;51.550;7.980;2023-02-05T04:18:58;3.80;99.90
18823;DHT22;9540;51.550;7.980;2023-02-05T04:21:25;3.80;99.90
18823;DHT22;9540;51.550;7.980;2023-02-05T04:23:52;3.80;99.90
18823;DHT22;9540;51.550;7.980;2023-02-05T04:26:19;3.80;99.90
18823;DHT22;9540;51.550;7.980;2023-02-05T04:28:46;3.80;99.90
18823;DHT22;9540;51.550;7.980;2023-02-05T04:31:13;3.80;99.90
18823;DHT22;9540;51.550;7.980;2023-02-05T04:33:40;3.80;99.90
18823;DHT22;9540;51.550;7.980;2023-02-05T04:36:09;3.80;99.90
18823;DHT22;9540;51.550;7.980;2023-02-05T04:38:36;3.80;99.90
18823;DHT22;9540;51.550;7.980;2023-02-05T04:41:04;3.80;99.90
18823;DHT22;9540;51.550;7.980;2023-02-05T04:43:31;3.70;99.90
18823;DHT22;9540;51.550;7.980;2023-02-05T04:45:58;3.70;99.90
18823;DHT22;9540;51.550;7.980;2023-02-05T04:48:30;3.70;99.90
18823;DHT22;9540;51.550;7.980;2023-02-05T04:50:57;3.80;99.90
18823;DHT22;9540;51.550;7.980;2023-02-05T04:53:25;3.80;99.90
18823;DHT22;9540;51.550;7.980;2023-02-05T04:55:52;3.80;99.90
18823;DHT22;9540;51.550;7.980;2023-02-05T04:58:29;3.90;99.90
18823;DHT22;9540;51.550;7.980;2023-02-05T05:00:56;3.90;99.90
18823;DHT22;9540;51.550;7.980;2023-02-05T05:03:23;3.90;99.90
18823;DHT22;9540;51.550;7.980;2023-02-05T05:05:50;3.90;99.90
18823;DHT22;9540;51.550;7.980;2023-02-05T05:08:17;3.90;99.90
18823;DHT22;9540;51.550;7.980;2023-02-05T05:10:46;3.90;99.90
18823;DHT22;9540;51.550;7.980;2023-02-05T05:13:13;3.90;99.90
18823;DHT22;9540;51.550;7.980;2023-02-05T05:15:40;3.90;99.90
18823;DHT22;9540;51.550;7.980;2023-02-05T05:18:07;3.90;99.90
18823;DHT22;9540;51.550;7.980;2023-02-05T05:20:34;3.80;99.90
18823;DHT22;9540;51.550;7.980;2023-02-05T05:23:00;3.80;99.90
18823;DHT22;9540;51.550;7.980;2023-02-05T05:25:27;3.80;99.90
18823;DHT22;9540;51.550;7.980;2023-02-05T05:27:56;3.80;99.90
18823;DHT22;9540;51.550;7.980;2023-02-05T05:30:23;3.90;99.90
18823;DHT22;9540;51.550;7.980;2023-02-05T05:32:50;3.90;99.90
18823;DHT22;9540;51.550;7.980;2023-02-05T05:35:17;3.90;99.90
18823;DHT22;9540;51.550;7.980;2023-02-05T05:37:44;3.90;99.90
18823;DHT22;9540;51.550;7.980;2023-02-05T05:40:11;4.00;99.90
18823;DHT22;9540;51.550;7.980;2023-02-05T05:42:57;4.00;99.90
18823;DHT22;9540;51.550;7.980;2023-02-05T05:45:41;4.00;99.90
18823;DHT22;9540;51.550;7.980;2023-02-05T05:48:08;4.00;99.90
18823;DHT22;9540;51.550;7.980;2023-02-05T05:50:35;4.20;99.90
18823;DHT22;9540;51.550;7.980;2023-02-05T05:53:02;4.20;99.90
18823;DHT22;9540;51.550;7.980;2023-02-05T05:55:29;4.20;99.90
18823;DHT22;9540;51.550;7.980;2023-02-05T05:57:57;4.30;99.90
18823;DHT22;9540;51.550;7.980;2023-02-05T06:00:24;4.30;99.90
18823;DHT22;9540;51.550;7.980;2023-02-05T06:02:51;4.30;99.90
18823;DHT22;9540;51.550;7.980;2023-02-05T06:05:18;4.20;99.90
18823;DHT22;9540;51.550;7.980;2023-02-05T06:07:45;4.20;99.90
18823;DHT22;9540;51.550;7.980;2023-02-05T06:10:12;4.20;99.90
18823;DHT22;9540;51.550;7.980;2023-02-05T06:12:39;4.20;99.90
18823;DHT22;9540;51.550;7.980;2023-02-05T06:15:08;4.30;99.90
18823;DHT22;9540;51.550;7.980;2023-02-05T06:17:35;4.30;99.90
18823;DHT22;9540;51.550;7.980;2023-02-05T06:20:03;4.30;99.90
18823;DHT22;9540;51.550;7.980;2023-02-05T06:22:30;4.30;99.90
18823;DHT22;9540;51.550;7.980;2023-02-05T06:24:57;4.30;99.90
18823;DHT22;9540;51.550;7.980;2023-02-05T06:27:24;4.40;99.90
18823;DHT22;9540;51.550;7.980;2023-02-05T06:29:52;4.50;99.90
18823;DHT22;9540;51.550;7.980;2023-02-05T06:32:20;4.60;99.90
18823;DHT22;9540;51.550;7.980;2023-02-05T06:34:47;4.60;99.90
18823;DHT22;9540;51.550;7.980;2023-02-05T06:37:14;4.60;99.90
18823;DHT22;9540;51.550;7.980;2023-02-05T06:39:42;4.70;99.90
18823;DHT22;9540;51.550;7.980;2023-02-05T06:42:10;4.70;99.90
18823;DHT22;9540;51.550;7.980;2023-02-05T06:44:36;4.80;99.90
18823;DHT22;9540;51.550;7.980;2023-02-05T06:47:03;4.80;99.90
18823;DHT22;9540;51.550;7.980;2023-02-05T06:49:32;4.80;99.90
18823;DHT22;9540;51.550;7.980;2023-02-05T06:51:59;4.80;99.90
18823;DHT22;9540;51.550;7.980;2023-02-05T06:54:26;4.80;99.90
18823;DHT22;9540;51.550;7.980;2023-02-05T06:56:53;4.70;99.90
18823;DHT22;9540;51.550;7.980;2023-02-05T06:59:20;4.70;99.90
18823;DHT22;9540;51.550;7.980;2023-02-05T07:01:47;4.80;99.90
18823;DHT22;9540;51.550;7.980;2023-02-05T07:04:14;4.80;99.90
18823;DHT22;9540;51.550;7.980;2023-02-05T07:06:43;4.80;99.90
18823;DHT22;9540;51.550;7.980;2023-02-05T07:09:09;4.80;99.90
18823;DHT22;9540;51.550;7.980;2023-02-05T07:11:36;4.80;99.90
18823;DHT22;9540;51.550;7.980;2023-02-05T07:14:03;4.80;99.90
18823;DHT22;9540;51.550;7.980;2023-02-05T07:16:31;4.90;99.90
18823;DHT22;9540;51.550;7.980;2023-02-05T07:18:58;4.90;99.90
18823;DHT22;9540;51.550;7.980;2023-02-05T07:21:25;5.00;99.90
18823;DHT22;9540;51.550;7.980;2023-02-05T07:23:53;5.00;99.90
18823;DHT22;9540;51.550;7.980;2023-02-05T07:26:20;5.00;99.90
18823;DHT22;9540;51.550;7.980;2023-02-05T07:28:48;5.00;99.90
18823;DHT22;9540;51.550;7.980;2023-02-05T07:31:17;5.00;99.90
18823;DHT22;9540;51.550;7.980;2023-02-05T07:33:46;5.00;99.90
18823;DHT22;9540;51.550;7.980;2023-02-05T07:36:16;5.00;99.90
18823;DHT22;9540;51.550;7.980;2023-02-05T07:38:44;5.00;99.90
18823;DHT22;9540;51.550;7.980;2023-02-05T07:41:14;5.00;99.90
18823;DHT22;9540;51.550;7.980;2023-02-05T07:43:41;5.00;99.90
18823;DHT22;9540;51.550;7.980;2023-02-05T07:46:10;5.00;99.90
18823;DHT22;9540;51.550;7.980;2023-02-05T07:48:38;5.10;99.90
18823;DHT22;9540;51.550;7.980;2023-02-05T07:51:05;5.00;99.90
18823;DHT22;9540;51.550;7.980;2023-02-05T07:53:33;5.00;99.90
18823;DHT22;9540;51.550;7.980;2023-02-05T07:56:01;5.00;99.90
18823;DHT22;9540;51.550;7.980;2023-02-05T07:58:30;5.00;99.90
18823;DHT22;9540;51.550;7.980;2023-02-05T08:00:59;5.10;99.90
18823;DHT22;9540;51.550;7.980;2023-02-05T08:03:27;5.10;99.90
18823;DHT22;9540;51.550;7.980;2023-02-05T08:05:54;5.10;99.90
18823;DHT22;9540;51.550;7.980;2023-02-05T08:08:21;5.20;99.90
18823;DHT22;9540;51.550;7.980;2023-02-05T08:10:55;5.20;99.90
18823;DHT22;9540;51.550;7.980;2023-02-05T08:13:22;5.20;99.90
18823;DHT22;9540;51.550;7.980;2023-02-05T08:15:50;5.20;99.90
18823;DHT22;9540;51.550;7.980;2023-02-05T08:18:17;5.20;99.90
18823;DHT22;9540;51.550;7.980;2023-02-05T08:20:44;5.30;99.90
18823;DHT22;9540;51.550;7.980;2023-02-05T08:23:11;5.30;99.90
18823;DHT22;9540;51.550;7.980;2023-02-05T08:25:38;5.30;99.90
18823;DHT22;9540;51.550;7.980;2023-02-05T08:28:05;5.40;99.90
18823;DHT22;9540;51.550;7.980;2023-02-05T08:30:32;5.40;99.90
18823;DHT22;9540;51.550;7.980;2023-02-05T08:33:02;5.40;99.90
18823;DHT22;9540;51.550;7.980;2023-02-05T08:35:29;5.50;99.90
18823;DHT22;9540;51.550;7.980;2023-02-05T08:37:56;5.50;99.90
18823;DHT22;9540;51.550;7.980;2023-02-05T08:40:23;5.50;99.90
18823;DHT22;9540;51.550;7.980;2023-02-05T08:42:50;5.50;99.90
18823;DHT22;9540;51.550;7.980;2023-02-05T08:45:21;5.50;99.90
18823;DHT22;9540;51.550;7.980;2023-02-05T08:47:48;5.60;99.90
18823;DHT22;9540;51.550;7.980;2023-02-05T08:50:17;5.60;99.90
18823;DHT22;9540;51.550;7.980;2023-02-05T08:52:44;5.50;99.90
18823;DHT22;9540;51.550;7.980;2023-02-05T08:55:11;5.50;99.90
18823;DHT22;9540;51.550;7.980;2023-02-05T08:57:39;5.50;99.90
18823;DHT22;9540;51.550;7.980;2023-02-05T09:00:07;5.50;99.90
18823;DHT22;9540;51.550;7.980;2023-02-05T09:02:34;5.40;99.90
18823;DHT22;9540;51.550;7.980;2023-02-05T09:05:01;5.40;99.90
18823;DHT22;9540;51.550;7.980;2023-02-05T09:07:30;5.40;99.90
18823;DHT22;9540;51.550;7.980;2023-02-05T09:09:57;5.40;99.90
18823;DHT22;9540;51.550;7.980;2023-02-05T09:12:24;5.40;99.90
18823;DHT22;9540;51.550;7.980;2023-02-05T09:14:51;5.30;99.90
18823;DHT22;9540;51.550;7.980;2023-02-05T09:17:18;5.30;99.90
18823;DHT22;9540;51.550;7.980;2023-02-05T09:19:45;5.30;99.90
18823;DHT22;9540;51.550;7.980;2023-02-05T09:22:12;5.20;99.90
18823;DHT22;9540;51.550;7.980;2023-02-05T09:24:40;5.20;99.90
18823;DHT22;9540;51.550;7.980;2023-02-05T09:27:07;5.20;99.90
18823;DHT22;9540;51.550;7.980;2023-02-05T09:29:38;5.30;99.90
18823;DHT22;9540;51.550;7.980;2023-02-05T09:32:06;5.30;99.90
18823;DHT22;9540;51.550;7.980;2023-02-05T09:34:32;5.30;99.90
18823;DHT22;9540;51.550;7.980;2023-02-05T09:37:00;5.30;99.90
18823;DHT22;9540;51.550;7.980;2023-02-05T09:39:40;5.40;99.90
18823;DHT22;9540;51.550;7.980;2023-02-05T09:42:13;5.40;99.90
18823;DHT22;9540;51.550;7.980;2023-02-05T09:44:51;5.40;99.90
18823;DHT22;9540;51.550;7.980;2023-02-05T09:47:23;5.40;99.90
18823;DHT22;9540;51.550;7.980;2023-02-05T09:49:58;5.50;99.90
18823;DHT22;9540;51.550;7.980;2023-02-05T09:52:32;5.50;99.90
18823;DHT22;9540;51.550;7.980;2023-02-05T09:55:03;5.40;99.90
18823;DHT22;9540;51.550;7.980;2023-02-05T09:57:34;5.50;99.90
18823;DHT22;9540;51.550;7.980;2023-02-05T10:00:04;5.50;99.90
18823;DHT22;9540;51.550;7.980;2023-02-05T10:02:36;5.50;99.90
18823;DHT22;9540;51.550;7.980;2023-02-05T10:05:12;5.50;99.90
18823;DHT22;9540;51.550;7.980;2023-02-05T10:07:47;5.40;99.90
18823;DHT22;9540;51.550;7.980;2023-02-05T10:10:28;5.40;99.90
18823;DHT22;9540;51.550;7.980;2023-02-05T10:13:28;5.40;99.90
18823;DHT22;9540;51.550;7.980;2023-02-05T10:16:32;5.40;99.90
18823;DHT22;9540;51.550;7.980;2023-02-05T10:22:13;5.80;99.90
18823;DHT22;9540;51.550;7.980;2023-02-05T10:24:57;5.80;99.90
18823;DHT22;9540;51.550;7.980;2023-02-05T10:27:37;5.70;99.90
18823;DHT22;9540;51.550;7.980;2023-02-05T10:30:17;5.60;99.90
18823;DHT22;9540;51.550;7.980;2023-02-05T10:32:55;5.50;99.90
18823;DHT22;9540;51.550;7.980;2023-02-05T10:35:25;5.50;99.90
18823;DHT22;9540;51.550;7.980;2023-02-05T10:37:56;5.50;99.90
18823;DHT22;9540;51.550;7.980;2023-02-05T10:40:25;5.50;99.90
18823;DHT22;9540;51.550;7.980;2023-02-05T10:43:02;5.50;99.90
18823;DHT22;9540;51.550;7.980;2023-02-05T10:45:33;5.50;99.90
18823;DHT22;9540;51.550;7.980;2023-02-05T10:48:32;5.50;99.90
18823;DHT22;9540;51.550;7.980;2023-02-05T10:51:03;5.50;99.90
18823;DHT22;9540;51.550;7.980;2023-02-05T10:53:32;5.50;99.90
18823;DHT22;9540;51.550;7.980;2023-02-05T10:56:03;5.50;99.90
18823;DHT22;9540;51.550;7.980;2023-02-05T10:58:43;5.50;99.90
18823;DHT22;9540;51.550;7.980;2023-02-05T11:01:15;5.50;99.90
18823;DHT22;9540;51.550;7.980;2023-02-05T11:03:52;5.50;99.90
18823;DHT22;9540;51.550;7.980;2023-02-05T11:06:22;5.50;99.90
18823;DHT22;9540;51.550;7.980;2023-02-05T11:08:51;5.50;99.90
18823;DHT22;9540;51.550;7.980;2023-02-05T11:11:21;5.60;99.90
18823;DHT22;9540;51.550;7.980;2023-02-05T11:13:54;5.80;99.90
18823;DHT22;9540;51.550;7.980;2023-02-05T11:16:22;5.90;99.90
18823;DHT22;9540;51.550;7.980;2023-02-05T11:18:59;5.70;99.90
18823;DHT22;9540;51.550;7.980;2023-02-05T11:21:45;5.70;99.90
18823;DHT22;9540;51.550;7.980;2023-02-05T11:24:23;5.70;99.90
18823;DHT22;9540;51.550;7.980;2023-02-05T11:27:27;5.80;99.90
18823;DHT22;9540;51.550;7.980;2023-02-05T11:29:57;5.90;99.90
18823;DHT22;9540;51.550;7.980;2023-02-05T11:32:33;5.90;99.90
18823;DHT22;9540;51.550;7.980;2023-02-05T11:35:18;5.90;99.90
18823;DHT22;9540;51.550;7.980;2023-02-05T11:37:48;5.90;99.90
18823;DHT22;9540;51.550;7.980;2023-02-05T11:40:20;5.80;99.90
18823;DHT22;9540;51.550;7.980;2023-02-05T11:43:02;5.70;99.90
18823;DHT22;9540;51.550;7.980;2023-02-05T11:45:34;5.70;99.90
18823;DHT22;9540;51.550;7.980;2023-02-05T11:48:05;5.70;99.90
18823;DHT22;9540;51.550;7.980;2023-02-05T11:50:33;5.70;99.90
18823;DHT22;9540;51.550;7.980;2023-02-05T11:53:11;5.70;99.90
18823;DHT22;9540;51.550;7.980;2023-02-05T11:55:42;5.70;99.90
18823;DHT22;9540;51.550;7.980;2023-02-05T11:58:19;5.70;99.90
18823;DHT22;9540;51.550;7.980;2023-02-05T12:00:55;5.80;99.90
18823;DHT22;9540;51.550;7.980;2023-02-05T12:03:25;5.80;99.90
18823;DHT22;9540;51.550;7.980;2023-02-05T12:06:02;5.80;99.90
18823;DHT22;9540;51.550;7.980;2023-02-05T12:08:36;5.80;99.90
18823;DHT22;9540;51.550;7.980;2023-02-05T12:11:26;5.80;99.90
18823;DHT22;9540;51.550;7.980;2023-02-05T12:14:22;5.80;99.90
18823;DHT22;9540;51.550;7.980;2023-02-05T12:16:59;5.70;99.90
18823;DHT22;9540;51.550;7.980;2023-02-05T12:19:34;5.70;99.90
18823;DHT22;9540;51.550;7.980;2023-02-05T12:22:13;5.70;99.90
18823;DHT22;9540;51.550;7.980;2023-02-05T12:25:13;5.80;99.90
18823;DHT22;9540;51.550;7.980;2023-02-05T12:28:01;5.90;99.90
18823;DHT22;9540;51.550;7.980;2023-02-05T12:30:42;5.80;99.90
18823;DHT22;9540;51.550;7.980;2023-02-05T12:33:33;5.90;99.90
18823;DHT22;9540;51.550;7.980;2023-02-05T12:36:14;5.80;99.90
18823;DHT22;9540;51.550;7.980;2023-02-05T12:38:53;5.70;99.90
18823;DHT22;9540;51.550;7.980;2023-02-05T12:41:28;5.80;99.90
18823;DHT22;9540;51.550;7.980;2023-02-05T12:44:03;5.70;99.90
18823;DHT22;9540;51.550;7.980;2023-02-05T12:46:52;5.60;99.90
18823;DHT22;9540;51.550;7.980;2023-02-05T12:49:41;5.50;99.90
18823;DHT22;9540;51.550;7.980;2023-02-05T12:52:20;5.40;99.90
18823;DHT22;9540;51.550;7.980;2023-02-05T12:55:09;5.30;99.90
18823;DHT22;9540;51.550;7.980;2023-02-05T12:57:43;5.30;99.90
18823;DHT22;9540;51.550;7.980;2023-02-05T13:00:16;5.30;99.90
18823;DHT22;9540;51.550;7.980;2023-02-05T13:02:52;5.20;99.90
18823;DHT22;9540;51.550;7.980;2023-02-05T13:05:27;5.20;99.90
18823;DHT22;9540;51.550;7.980;2023-02-05T13:08:01;5.20;99.90
18823;DHT22;9540;51.550;7.980;2023-02-05T13:10:37;5.20;99.90
18823;DHT22;9540;51.550;7.980;2023-02-05T13:13:13;5.20;99.90
18823;DHT22;9540;51.550;7.980;2023-02-05T13:15:44;5.20;99.90
18823;DHT22;9540;51.550;7.980;2023-02-05T13:18:16;5.20;99.90
18823;DHT22;9540;51.550;7.980;2023-02-05T13:20:53;5.30;99.90
18823;DHT22;9540;51.550;7.980;2023-02-05T13:23:40;5.30;99.90
18823;DHT22;9540;51.550;7.980;2023-02-05T13:26:31;5.30;99.90
18823;DHT22;9540;51.550;7.980;2023-02-05T13:29:17;5.30;99.90
18823;DHT22;9540;51.550;7.980;2023-02-05T13:31:50;5.30;99.90
18823;DHT22;9540;51.550;7.980;2023-02-05T13:34:20;5.20;99.90
18823;DHT22;9540;51.550;7.980;2023-02-05T13:37:17;5.20;99.90
18823;DHT22;9540;51.550;7.980;2023-02-05T13:40:03;5.20;99.90
18823;DHT22;9540;51.550;7.980;2023-02-05T13:46:04;5.20;99.90
18823;DHT22;9540;51.550;7.980;2023-02-05T13:49:06;5.20;99.90
18823;DHT22;9540;51.550;7.980;2023-02-05T13:51:42;5.20;99.90
18823;DHT22;9540;51.550;7.980;2023-02-05T13:55:01;5.20;99.90
18823;DHT22;9540;51.550;7.980;2023-02-05T13:58:07;5.20;99.90
18823;DHT22;9540;51.550;7.980;2023-02-05T14:00:38;5.20;99.90
18823;DHT22;9540;51.550;7.980;2023-02-05T14:03:07;5.20;99.90
18823;DHT22;9540;51.550;7.980;2023-02-05T14:05:36;5.20;99.90
18823;DHT22;9540;51.550;7.980;2023-02-05T14:08:05;5.20;99.90
18823;DHT22;9540;51.550;7.980;2023-02-05T14:10:36;5.10;99.90
18823;DHT22;9540;51.550;7.980;2023-02-05T14:13:16;5.20;99.90
18823;DHT22;9540;51.550;7.980;2023-02-05T14:15:47;5.20;99.90
18823;DHT22;9540;51.550;7.980;2023-02-05T14:18:46;5.10;99.90
18823;DHT22;9540;51.550;7.980;2023-02-05T14:21:56;5.20;99.90
18823;DHT22;9540;51.550;7.980;2023-02-05T14:24:38;5.20;99.90
18823;DHT22;9540;51.550;7.980;2023-02-05T14:30:48;5.10;99.90
18823;DHT22;9540;51.550;7.980;2023-02-05T14:33:31;5.10;99.90
18823;DHT22;9540;51.550;7.980;2023-02-05T14:36:26;5.00;99.90
18823;DHT22;9540;51.550;7.980;2023-02-05T14:38:59;5.00;99.90
18823;DHT22;9540;51.550;7.980;2023-02-05T14:41:29;5.00;99.90
18823;DHT22;9540;51.550;7.980;2023-02-05T14:44:02;5.00;99.90
18823;DHT22;9540;51.550;7.980;2023-02-05T14:46:32;5.00;99.90
18823;DHT22;9540;51.550;7.980;2023-02-05T14:49:04;5.00;99.90
18823;DHT22;9540;51.550;7.980;2023-02-05T14:51:36;5.00;99.90
18823;DHT22;9540;51.550;7.980;2023-02-05T14:54:06;5.00;99.90
18823;DHT22;9540;51.550;7.980;2023-02-05T14:56:40;4.90;99.90
18823;DHT22;9540;51.550;7.980;2023-02-05T14:59:20;4.90;99.90
18823;DHT22;9540;51.550;7.980;2023-02-05T15:01:48;4.90;99.90
18823;DHT22;9540;51.550;7.980;2023-02-05T15:04:37;4.90;99.90
18823;DHT22;9540;51.550;7.980;2023-02-05T15:07:08;4.90;99.90
18823;DHT22;9540;51.550;7.980;2023-02-05T15:09:41;4.90;99.90
18823;DHT22;9540;51.550;7.980;2023-02-05T15:12:36;4.90;99.90
18823;DHT22;9540;51.550;7.980;2023-02-05T15:15:25;4.80;99.90
18823;DHT22;9540;51.550;7.980;2023-02-05T15:17:58;4.80;99.90
18823;DHT22;9540;51.550;7.980;2023-02-05T15:20:30;4.80;99.90
18823;DHT22;9540;51.550;7.980;2023-02-05T15:23:05;4.80;99.90
18823;DHT22;9540;51.550;7.980;2023-02-05T15:25:38;4.80;99.90
18823;DHT22;9540;51.550;7.980;2023-02-05T15:28:19;4.80;99.90
18823;DHT22;9540;51.550;7.980;2023-02-05T15:30:55;4.80;99.90
18823;DHT22;9540;51.550;7.980;2023-02-05T15:33:39;4.80;99.90
18823;DHT22;9540;51.550;7.980;2023-02-05T15:36:15;4.80;99.90
18823;DHT22;9540;51.550;7.980;2023-02-05T15:38:48;4.80;99.90
18823;DHT22;9540;51.550;7.980;2023-02-05T15:41:19;4.70;99.90
18823;DHT22;9540;51.550;7.980;2023-02-05T15:43:57;4.80;99.90
18823;DHT22;9540;51.550;7.980;2023-02-05T15:46:26;4.70;99.90
18823;DHT22;9540;51.550;7.980;2023-02-05T15:48:55;4.70;99.90
18823;DHT22;9540;51.550;7.980;2023-02-05T15:51:27;4.70;99.90
18823;DHT22;9540;51.550;7.980;2023-02-05T15:53:56;4.70;99.90
18823;DHT22;9540;51.550;7.980;2023-02-05T15:56:27;4.70;99.90
18823;DHT22;9540;51.550;7.980;2023-02-05T15:58:58;4.70;99.90
18823;DHT22;9540;51.550;7.980;2023-02-05T16:01:30;4.70;99.90
18823;DHT22;9540;51.550;7.980;2023-02-05T16:03:59;4.70;99.90
18823;DHT22;9540;51.550;7.980;2023-02-05T16:06:28;4.70;99.90
18823;DHT22;9540;51.550;7.980;2023-02-05T16:08:55;4.70;99.90
18823;DHT22;9540;51.550;7.980;2023-02-05T16:11:34;4.70;99.90
18823;DHT22;9540;51.550;7.980;2023-02-05T16:14:03;4.70;99.90
18823;DHT22;9540;51.550;7.980;2023-02-05T16:16:33;4.70;99.90
18823;DHT22;9540;51.550;7.980;2023-02-05T16:19:05;4.70;99.90
18823;DHT22;9540;51.550;7.980;2023-02-05T16:21:38;4.60;99.90
18823;DHT22;9540;51.550;7.980;2023-02-05T16:24:17;4.60;99.90
18823;DHT22;9540;51.550;7.980;2023-02-05T16:26:51;4.60;99.90
18823;DHT22;9540;51.550;7.980;2023-02-05T16:29:24;4.60;99.90
18823;DHT22;9540;51.550;7.980;2023-02-05T16:31:59;4.60;99.90
18823;DHT22;9540;51.550;7.980;2023-02-05T16:34:27;4.60;99.90
18823;DHT22;9540;51.550;7.980;2023-02-05T16:36:59;4.60;99.90
18823;DHT22;9540;51.550;7.980;2023-02-05T16:39:32;4.60;99.90
18823;DHT22;9540;51.550;7.980;2023-02-05T16:42:04;4.60;99.90
18823;DHT22;9540;51.550;7.980;2023-02-05T16:44:34;4.60;99.90
18823;DHT22;9540;51.550;7.980;2023-02-05T16:47:13;4.60;99.90